createdAt,value
2018-11-12T00:01:30.762Z,6.47
2018-11-12T00:04:04.562Z,6.40
2018-11-12T00:06:38.589Z,6.53
2018-11-12T00:09:12.539Z,7.93
2018-11-12T00:11:46.325Z,7.87
2018-11-12T00:14:20.111Z,8.27
2018-11-12T00:16:54.090Z,9.20
2018-11-12T00:19:27.861Z,9.33
2018-11-12T00:22:01.721Z,9.90
2018-11-12T00:24:35.581Z,10.53
2018-11-12T00:27:09.549Z,10.20
2018-11-12T00:29:43.517Z,10.77
2018-11-12T00:32:17.640Z,10.87
2018-11-12T00:34:51.650Z,11.00
2018-11-12T00:37:25.684Z,10.77
2018-11-12T00:39:59.660Z,11.83
2018-11-12T00:42:33.701Z,11.13
2018-11-12T00:45:08.206Z,11.87
2018-11-12T00:47:42.609Z,11.60
2018-11-12T00:50:16.718Z,12.37
2018-11-12T00:52:50.515Z,12.20
2018-11-12T00:55:24.492Z,12.03
2018-11-12T00:57:58.286Z,13.47
2018-11-12T01:00:32.222Z,13.67
2018-11-12T01:03:06.286Z,13.53
2018-11-12T01:05:40.253Z,13.17
2018-11-12T01:08:14.207Z,13.50
2018-11-12T01:10:47.998Z,13.83
2018-11-12T01:13:21.956Z,13.53
2018-11-12T01:15:55.897Z,14.00
2018-11-12T01:18:29.716Z,12.00
2018-11-12T01:21:03.506Z,12.87
2018-11-12T01:23:37.232Z,12.37
2018-11-12T01:26:11.169Z,10.63
2018-11-12T01:28:45.128Z,11.00
2018-11-12T01:31:18.914Z,10.13
2018-11-12T01:33:52.847Z,10.10
2018-11-12T01:36:26.816Z,8.90
2018-11-12T01:39:00.609Z,8.40
2018-11-12T01:41:34.509Z,7.97
2018-11-12T01:46:47.230Z,7.63
2018-11-12T01:49:20.993Z,7.87
2018-11-12T01:51:54.975Z,7.47
2018-11-12T01:54:28.710Z,7.07
2018-11-12T01:57:02.535Z,6.43
2018-11-12T01:59:36.373Z,7.70
2018-11-12T02:02:10.299Z,7.23
2018-11-12T02:04:44.111Z,6.23
2018-11-12T02:07:18.072Z,6.50
2018-11-12T02:09:52.068Z,6.37
2018-11-12T02:12:25.791Z,5.60
2018-11-12T02:14:59.661Z,5.87
2018-11-12T02:17:33.533Z,6.27
2018-11-12T02:20:08.512Z,6.30
2018-11-12T02:22:43.757Z,6.30
2018-11-12T02:25:17.981Z,6.47
2018-11-12T02:27:52.009Z,7.10
2018-11-12T02:30:31.239Z,6.63
2018-11-12T02:33:05.157Z,6.73
2018-11-12T02:35:39.003Z,7.50
2018-11-12T02:38:13.006Z,6.93
2018-11-12T02:40:46.764Z,8.23
2018-11-12T02:43:20.776Z,7.60
2018-11-12T02:45:54.696Z,7.17
2018-11-12T02:48:28.679Z,7.73
2018-11-12T02:51:02.581Z,7.83
2018-11-12T02:53:36.533Z,8.60
2018-11-12T02:56:10.586Z,9.10
2018-11-12T02:58:44.513Z,9.50
2018-11-12T03:01:21.891Z,9.33
2018-11-12T03:03:55.814Z,10.43
2018-11-12T03:06:29.773Z,10.80
2018-11-12T03:09:05.827Z,10.27
2018-11-12T03:11:39.832Z,10.63
2018-11-12T03:14:13.636Z,12.60
2018-11-12T03:16:47.677Z,11.13
2018-11-12T03:19:21.521Z,11.63
2018-11-12T03:21:55.495Z,12.43
2018-11-12T03:24:29.324Z,11.27
2018-11-12T03:27:03.262Z,12.57
2018-11-12T03:29:37.140Z,11.83
2018-11-12T03:32:11.062Z,12.40
2018-11-12T03:34:45.052Z,11.53
2018-11-12T03:37:18.861Z,12.00
2018-11-12T03:39:52.815Z,12.63
2018-11-12T03:42:26.698Z,13.37
2018-11-12T03:45:01.193Z,13.67
2018-11-12T03:47:35.117Z,13.80
2018-11-12T03:50:10.129Z,14.40
2018-11-12T03:52:43.900Z,14.67
2018-11-12T03:55:19.928Z,14.63
2018-11-12T03:57:53.801Z,15.03
2018-11-12T04:00:31.508Z,15.53
2018-11-12T04:03:05.302Z,15.53
2018-11-12T04:05:39.190Z,15.87
2018-11-12T04:08:13.012Z,16.63
2018-11-12T04:10:47.029Z,16.20
2018-11-12T04:13:20.994Z,17.40
2018-11-12T04:15:54.916Z,17.50
2018-11-12T04:18:28.799Z,17.23
2018-11-12T04:21:02.694Z,17.40
2018-11-12T04:23:36.564Z,17.67
2018-11-12T04:26:10.469Z,17.77
2018-11-12T04:28:44.234Z,18.30
2018-11-12T04:31:17.946Z,20.00
2018-11-12T04:33:51.884Z,20.77
2018-11-12T04:36:25.878Z,20.33
2018-11-12T04:38:59.750Z,20.17
2018-11-12T04:41:33.712Z,20.60
2018-11-12T04:44:07.621Z,20.73
2018-11-12T04:46:41.601Z,19.83
2018-11-12T04:49:15.443Z,19.67
2018-11-12T04:51:49.384Z,19.33
2018-11-12T04:54:23.225Z,19.53
2018-11-12T04:56:57.363Z,19.87
2018-11-12T04:59:31.292Z,19.10
2018-11-12T05:02:05.118Z,20.07
2018-11-12T05:04:39.096Z,20.10
2018-11-12T05:07:13.119Z,20.00
2018-11-12T05:09:46.986Z,20.30
2018-11-12T05:12:20.938Z,19.97
2018-11-12T05:14:54.843Z,19.70
2018-11-12T05:17:28.771Z,20.30
2018-11-12T05:20:02.575Z,20.03
2018-11-12T05:22:36.446Z,19.93
2018-11-12T05:25:10.588Z,21.80
2018-11-12T05:27:44.410Z,21.00
2018-11-12T05:30:20.877Z,22.43
2018-11-12T05:32:54.899Z,23.37
2018-11-12T05:35:29.626Z,24.30
2018-11-12T05:38:04.431Z,23.87
2018-11-12T05:40:38.320Z,24.90
2018-11-12T05:43:11.958Z,25.77
2018-11-12T05:45:45.749Z,24.70
2018-11-12T05:48:19.644Z,24.73
2018-11-12T05:50:53.564Z,24.53
2018-11-12T05:53:27.528Z,25.40
2018-11-12T05:56:01.438Z,25.57
2018-11-12T05:58:35.330Z,25.03
2018-11-12T06:01:09.326Z,24.93
2018-11-12T06:03:43.175Z,25.93
2018-11-12T06:06:17.218Z,25.17
2018-11-12T06:08:51.172Z,25.83
2018-11-12T06:11:25.066Z,25.80
2018-11-12T06:13:59.024Z,25.97
2018-11-12T06:16:32.909Z,25.47
2018-11-12T06:19:07.017Z,27.77
2018-11-12T06:21:40.713Z,25.70
2018-11-12T06:24:14.672Z,26.47
2018-11-12T06:26:48.558Z,25.43
2018-11-12T06:29:22.360Z,24.50
2018-11-12T06:31:56.174Z,27.93
2018-11-12T06:34:29.908Z,23.47
2018-11-12T06:37:03.806Z,26.20
2018-11-12T06:39:37.788Z,24.00
2018-11-12T06:42:11.746Z,25.00
2018-11-12T06:44:45.522Z,25.53
2018-11-12T06:47:19.550Z,25.43
2018-11-12T06:49:56.275Z,27.33
2018-11-12T06:52:30.211Z,25.60
2018-11-12T06:55:04.071Z,27.70
2018-11-12T06:57:38.231Z,27.90
2018-11-12T07:00:16.780Z,28.03
2018-11-12T07:02:50.556Z,29.80
2018-11-12T07:05:24.788Z,28.57
2018-11-12T07:07:58.881Z,28.27
2018-11-12T07:10:32.801Z,29.97
2018-11-12T07:13:06.704Z,30.07
2018-11-12T07:15:40.615Z,30.13
2018-11-12T07:18:14.578Z,29.77
2018-11-12T07:20:48.565Z,30.43
2018-11-12T07:23:22.445Z,30.00
2018-11-12T07:25:56.316Z,30.00
2018-11-12T07:28:30.331Z,29.23
2018-11-12T07:31:04.310Z,31.23
2018-11-12T07:33:38.414Z,29.80
2018-11-12T07:36:12.603Z,31.10
2018-11-12T07:38:46.710Z,30.83
2018-11-12T07:41:20.659Z,29.30
2018-11-12T07:43:54.509Z,29.10
2018-11-12T07:46:28.361Z,29.47
2018-11-12T07:49:02.095Z,28.67
2018-11-12T07:51:35.837Z,29.43
2018-11-12T07:54:09.698Z,27.93
2018-11-12T07:56:43.759Z,29.77
2018-11-12T07:59:17.611Z,28.13
2018-11-12T08:01:51.446Z,28.93
2018-11-12T08:04:25.262Z,28.37
2018-11-12T08:06:59.262Z,31.43
2018-11-12T08:09:33.189Z,28.47
2018-11-12T08:12:07.302Z,27.30
2018-11-12T08:14:41.354Z,29.47
2018-11-12T08:17:15.134Z,28.40
2018-11-12T08:19:48.945Z,28.33
2018-11-12T08:22:22.836Z,27.27
2018-11-12T08:24:56.806Z,28.03
2018-11-12T08:27:30.775Z,25.00
2018-11-12T08:30:05.093Z,25.47
2018-11-12T08:32:38.710Z,24.63
2018-11-12T08:35:13.196Z,27.03
2018-11-12T08:37:47.404Z,26.37
2018-11-12T08:40:22.528Z,26.00
2018-11-12T08:42:56.395Z,25.27
2018-11-12T08:45:30.340Z,26.17
2018-11-12T08:48:04.239Z,25.87
2018-11-12T08:50:38.137Z,27.63
2018-11-12T08:53:11.904Z,25.87
2018-11-12T08:55:45.847Z,25.60
2018-11-12T08:58:20.178Z,23.90
2018-11-12T09:00:53.611Z,24.40
2018-11-12T09:03:27.360Z,23.17
2018-11-12T09:06:01.274Z,24.07
2018-11-12T09:08:35.117Z,22.90
2018-11-12T09:11:09.171Z,23.53
2018-11-12T09:13:43.597Z,23.77
2018-11-12T09:16:17.158Z,22.80
2018-11-12T09:18:51.225Z,21.17
2018-11-12T09:21:25.284Z,22.33
2018-11-12T09:23:59.871Z,22.73
2018-11-12T09:26:33.706Z,21.10
2018-11-12T09:29:07.388Z,21.33
2018-11-12T09:31:41.445Z,21.17
2018-11-12T09:34:15.443Z,22.17
2018-11-12T09:36:49.287Z,20.13
2018-11-12T09:39:23.019Z,21.00
2018-11-12T09:41:56.905Z,20.50
2018-11-12T09:44:30.745Z,19.30
2018-11-12T09:47:04.530Z,20.43
2018-11-12T09:49:38.342Z,19.40
2018-11-12T09:52:12.205Z,19.10
2018-11-12T09:54:45.999Z,18.77
2018-11-12T09:57:19.973Z,17.87
2018-11-12T09:59:53.908Z,17.43
2018-11-12T10:02:28.836Z,18.60
2018-11-12T10:05:03.501Z,17.90
2018-11-12T10:07:38.330Z,17.10
2018-11-12T10:10:18.618Z,17.63
2018-11-12T10:12:52.085Z,16.83
2018-11-12T10:15:26.680Z,16.50
2018-11-12T10:18:00.639Z,16.30
2018-11-12T10:20:31.971Z,18.03
2018-11-12T10:23:05.758Z,16.33
2018-11-12T10:25:39.720Z,16.47
2018-11-12T10:28:13.861Z,16.93
2018-11-12T10:30:47.819Z,16.07
2018-11-12T10:33:21.715Z,15.47
2018-11-12T10:35:55.369Z,15.13
2018-11-12T10:38:29.175Z,15.23
2018-11-12T10:41:02.990Z,15.47
2018-11-12T10:43:36.748Z,15.53
2018-11-12T10:46:10.475Z,15.50
2018-11-12T10:48:44.492Z,14.30
2018-11-12T10:51:18.317Z,14.37
2018-11-12T10:53:52.300Z,14.53
2018-11-12T10:56:26.177Z,13.87
2018-11-12T10:59:00.110Z,14.13
2018-11-12T11:01:39.049Z,14.07
2018-11-12T11:04:18.176Z,13.97
2018-11-12T11:06:52.048Z,14.07
2018-11-12T11:09:25.916Z,14.00
2018-11-12T11:11:59.801Z,14.00
2018-11-12T11:14:33.720Z,14.07
2018-11-12T11:17:07.585Z,13.37
2018-11-12T11:19:41.521Z,14.80
2018-11-12T11:22:15.344Z,13.47
2018-11-12T11:24:49.226Z,13.80
2018-11-12T11:27:23.179Z,13.43
2018-11-12T11:29:57.148Z,13.57
2018-11-12T11:32:30.988Z,14.23
2018-11-12T11:35:04.915Z,13.63
2018-11-12T11:37:38.880Z,13.63
2018-11-12T11:40:15.283Z,12.33
2018-11-12T11:42:49.209Z,13.77
2018-11-12T11:45:23.356Z,12.27
2018-11-12T11:47:57.239Z,12.10
2018-11-12T11:50:31.129Z,13.13
2018-11-12T11:53:04.993Z,12.60
2018-11-12T11:55:38.897Z,12.53
2018-11-12T11:58:12.948Z,12.93
2018-11-12T12:00:46.743Z,12.33
2018-11-12T12:03:20.662Z,12.03
2018-11-12T12:05:54.494Z,13.03
2018-11-12T12:08:28.439Z,12.17
2018-11-12T12:11:02.412Z,12.47
2018-11-12T12:13:36.271Z,12.00
2018-11-12T12:16:10.198Z,12.43
2018-11-12T12:18:44.165Z,11.90
2018-11-12T12:21:18.081Z,11.67
2018-11-12T12:23:51.867Z,11.43
2018-11-12T12:26:25.687Z,11.43
2018-11-12T12:28:59.453Z,11.83
2018-11-12T12:31:33.569Z,11.43
2018-11-12T12:34:07.596Z,10.40
2018-11-12T12:36:41.365Z,11.33
2018-11-12T12:39:15.298Z,10.40
2018-11-12T12:41:49.177Z,10.70
2018-11-12T12:44:23.504Z,11.23
2018-11-12T12:46:57.046Z,11.00
2018-11-12T12:49:31.112Z,11.10
2018-11-12T12:52:05.969Z,10.37
2018-11-12T12:54:39.955Z,10.50
2018-11-12T12:57:13.945Z,10.67
2018-11-12T12:59:47.865Z,10.50
2018-11-12T13:02:21.936Z,9.97
2018-11-12T13:04:55.833Z,10.30
2018-11-12T13:07:30.647Z,10.20
2018-11-12T13:10:04.859Z,10.00
2018-11-12T13:12:38.653Z,9.93
2018-11-12T13:15:15.804Z,11.20
2018-11-12T13:17:50.282Z,10.17
2018-11-12T13:20:25.035Z,10.20
2018-11-12T13:22:58.893Z,10.50
2018-11-12T13:25:32.887Z,10.00
2018-11-12T13:28:06.716Z,9.80
2018-11-12T13:30:40.327Z,10.17
2018-11-12T13:33:14.467Z,10.30
2018-11-12T13:35:48.314Z,10.27
2018-11-12T13:38:22.285Z,10.50
2018-11-12T13:40:56.305Z,9.40
2018-11-12T13:43:30.120Z,9.30
2018-11-12T13:46:03.882Z,10.17
2018-11-12T13:48:37.838Z,9.57
2018-11-12T13:51:11.778Z,8.97
2018-11-12T13:53:45.788Z,9.90
2018-11-12T13:56:19.704Z,9.77
2018-11-12T13:58:53.522Z,9.00
2018-11-12T14:01:27.716Z,9.20
2018-11-12T14:04:01.787Z,8.83
2018-11-12T14:06:35.733Z,8.47
2018-11-12T14:09:10.269Z,9.33
2018-11-12T14:11:44.101Z,9.13
2018-11-12T14:14:17.987Z,9.10
2018-11-12T14:16:52.051Z,9.07
2018-11-12T14:19:25.933Z,9.27
2018-11-12T14:21:59.793Z,9.20
2018-11-12T14:24:33.584Z,9.07
2018-11-12T14:27:07.438Z,9.10
2018-11-12T14:29:41.363Z,9.90
2018-11-12T14:32:15.113Z,9.03
2018-11-12T14:34:49.217Z,9.90
2018-11-12T14:37:23.158Z,9.27
2018-11-12T14:39:57.336Z,9.13
2018-11-12T14:42:31.337Z,9.47
2018-11-12T14:45:05.513Z,8.73
2018-11-12T14:47:39.308Z,8.93
2018-11-12T14:50:13.375Z,9.20
2018-11-12T14:52:47.886Z,9.90
2018-11-12T14:55:22.047Z,8.90
2018-11-12T14:57:56.007Z,9.07
2018-11-12T15:00:29.686Z,9.33
2018-11-12T15:03:03.551Z,8.83
2018-11-12T15:05:37.340Z,9.27
2018-11-12T15:08:11.317Z,9.50
2018-11-12T15:10:45.268Z,8.20
2018-11-12T15:13:19.143Z,9.13
2018-11-12T15:15:52.875Z,8.50
2018-11-12T15:18:26.663Z,9.27
2018-11-12T15:21:00.680Z,9.17
2018-11-12T15:23:34.530Z,8.73
2018-11-12T15:26:08.482Z,8.10
2018-11-12T15:28:42.555Z,9.10
2018-11-12T15:31:16.364Z,9.20
2018-11-12T15:33:50.308Z,9.60
2018-11-12T15:36:24.180Z,10.13
2018-11-12T15:38:58.050Z,8.70
2018-11-12T15:41:32.378Z,9.37
2018-11-12T15:44:06.505Z,9.60
2018-11-12T15:46:41.013Z,12.83
2018-11-12T15:49:15.251Z,10.33
2018-11-12T15:51:49.236Z,9.47
2018-11-12T15:54:23.216Z,10.57
2018-11-12T15:56:57.229Z,9.80
2018-11-12T15:59:31.136Z,9.60
2018-11-12T16:02:05.071Z,9.43
2018-11-12T16:04:38.892Z,10.30
2018-11-12T16:07:12.685Z,10.67
2018-11-12T16:09:46.622Z,11.13
2018-11-12T16:12:20.511Z,10.97
2018-11-12T16:14:54.689Z,10.90
2018-11-12T16:17:28.810Z,11.63
2018-11-12T16:20:03.371Z,11.83
2018-11-12T16:22:37.604Z,11.37
2018-11-12T16:25:12.311Z,11.00
2018-11-12T16:27:46.445Z,10.63
2018-11-12T16:30:21.145Z,11.53
2018-11-12T16:32:55.433Z,10.60
2018-11-12T16:35:29.571Z,10.97
2018-11-12T16:38:03.516Z,10.93
2018-11-12T16:40:37.411Z,10.73
2018-11-12T16:43:11.226Z,10.07
2018-11-12T16:45:45.319Z,10.60
2018-11-12T16:48:19.515Z,10.57
2018-11-12T16:50:53.354Z,11.30
2018-11-12T16:53:28.412Z,11.37
2018-11-12T16:56:02.512Z,11.23
2018-11-12T16:58:36.465Z,12.40
2018-11-12T17:01:10.627Z,11.97
2018-11-12T17:03:44.523Z,11.97
2018-11-12T17:06:18.497Z,10.93
2018-11-12T17:08:52.465Z,12.20
2018-11-12T17:11:26.521Z,12.60
2018-11-12T17:14:00.787Z,12.13
2018-11-12T17:16:34.969Z,11.63
2018-11-12T17:19:12.280Z,12.37
2018-11-12T17:21:46.681Z,11.70
2018-11-12T17:24:26.610Z,11.93
2018-11-12T17:27:01.244Z,12.03
2018-11-12T17:32:25.089Z,11.43
2018-11-12T17:34:58.987Z,11.07
2018-11-12T17:37:33.299Z,10.77
2018-11-12T17:40:12.712Z,10.03
2018-11-12T17:42:47.930Z,10.73
2018-11-12T17:45:23.270Z,10.63
2018-11-12T17:47:58.145Z,10.53
2018-11-12T17:50:32.122Z,10.50
2018-11-12T17:53:06.484Z,10.53
2018-11-12T17:55:40.488Z,10.30
2018-11-12T17:58:14.443Z,9.87
2018-11-12T18:00:48.365Z,10.57
2018-11-12T18:03:22.550Z,10.10
2018-11-12T18:05:56.390Z,9.97
2018-11-12T18:08:30.328Z,10.70
2018-11-12T18:11:04.287Z,9.77
2018-11-12T18:13:38.244Z,9.60
2018-11-12T18:16:11.898Z,9.57
2018-11-12T18:18:45.819Z,9.80
2018-11-12T18:21:19.733Z,8.60
2018-11-12T18:23:53.720Z,9.10
2018-11-12T18:26:27.410Z,8.67
2018-11-12T18:29:01.530Z,8.60
2018-11-12T18:31:35.577Z,8.00
2018-11-12T18:34:09.331Z,7.77
2018-11-12T18:36:43.076Z,8.70
2018-11-12T18:39:17.080Z,8.00
2018-11-12T18:41:51.000Z,8.10
2018-11-12T18:44:24.905Z,8.13
2018-11-12T18:46:58.846Z,8.30
2018-11-12T18:49:33.082Z,7.80
2018-11-12T18:52:06.986Z,7.37
2018-11-12T18:54:41.368Z,7.40
2018-11-12T18:57:15.469Z,8.40
2018-11-12T18:59:49.393Z,7.37
2018-11-12T19:02:23.433Z,7.23
2018-11-12T19:04:57.443Z,7.53
2018-11-12T19:07:31.375Z,7.60
2018-11-12T19:10:06.076Z,8.10
2018-11-12T19:12:40.169Z,8.20
2018-11-12T19:15:16.281Z,7.87
2018-11-12T19:17:51.549Z,9.87
2018-11-12T19:20:25.570Z,8.80
2018-11-12T19:22:59.403Z,7.97
2018-11-12T19:25:33.321Z,8.03
2018-11-12T19:28:07.307Z,7.80
2018-11-12T19:30:41.933Z,7.93
2018-11-12T19:33:15.773Z,8.20
2018-11-12T19:35:49.563Z,8.77
2018-11-12T19:38:23.463Z,8.47
2018-11-12T19:40:57.303Z,9.00
2018-11-12T19:43:31.332Z,8.80
2018-11-12T19:46:07.406Z,9.37
2018-11-12T19:48:41.456Z,8.23
2018-11-12T19:51:15.340Z,8.37
2018-11-12T19:53:49.163Z,8.17
2018-11-12T19:56:23.175Z,8.53
2018-11-12T19:58:57.278Z,7.87
2018-11-12T20:01:31.189Z,8.57
2018-11-12T20:04:05.357Z,8.30
2018-11-12T20:06:39.268Z,8.47
2018-11-12T20:09:13.299Z,7.93
2018-11-12T20:11:47.215Z,8.13
2018-11-12T20:14:21.192Z,8.67
2018-11-12T20:16:56.146Z,8.20
2018-11-12T20:19:29.964Z,8.67
2018-11-12T20:22:03.935Z,8.17
2018-11-12T20:24:38.015Z,8.13
2018-11-12T20:27:12.330Z,8.57
2018-11-12T20:29:46.513Z,8.20
2018-11-12T20:32:20.343Z,7.93
2018-11-12T20:34:54.157Z,7.20
2018-11-12T20:37:28.102Z,7.80
2018-11-12T20:40:02.152Z,7.47
2018-11-12T20:42:36.210Z,6.93
2018-11-12T20:45:10.740Z,7.13
2018-11-12T20:47:45.752Z,7.63
2018-11-12T20:50:19.701Z,7.20
2018-11-12T20:52:53.603Z,7.93
2018-11-12T20:55:27.503Z,7.70
2018-11-12T20:58:01.415Z,6.50
2018-11-12T21:00:35.378Z,7.27
2018-11-12T21:03:09.402Z,7.50
2018-11-12T21:05:43.368Z,7.63
2018-11-12T21:08:17.709Z,7.77
2018-11-12T21:10:51.837Z,7.70
2018-11-12T21:13:25.763Z,7.43
2018-11-12T21:15:59.778Z,6.70
2018-11-12T21:18:33.699Z,6.63
2018-11-12T21:23:46.258Z,7.23
2018-11-12T21:26:20.186Z,6.80
2018-11-12T21:28:54.136Z,6.80
2018-11-12T21:31:28.111Z,7.60
2018-11-12T21:34:02.117Z,7.17
2018-11-12T21:36:35.999Z,6.67
2018-11-12T21:39:11.402Z,6.27
2018-11-12T21:41:45.253Z,6.13
2018-11-12T21:44:19.195Z,6.63
2018-11-12T21:46:53.049Z,6.60
2018-11-12T21:49:27.017Z,6.50
2018-11-12T21:52:00.877Z,5.70
2018-11-12T21:54:34.858Z,6.03
2018-11-12T21:57:08.554Z,5.67
2018-11-12T21:59:42.448Z,5.63
2018-11-12T22:02:16.223Z,6.50
2018-11-12T22:04:50.227Z,6.00
2018-11-12T22:07:24.157Z,5.47
2018-11-12T22:09:58.146Z,4.80
2018-11-12T22:12:32.071Z,5.07
2018-11-12T22:15:06.165Z,5.17
2018-11-12T22:17:39.957Z,4.83
2018-11-12T22:20:15.268Z,4.90
2018-11-12T22:22:49.179Z,4.57
2018-11-12T22:25:23.486Z,4.73
2018-11-12T22:27:58.507Z,4.63
2018-11-12T22:30:33.116Z,4.50
2018-11-12T22:33:06.913Z,4.80
2018-11-12T22:35:40.730Z,4.70
2018-11-12T22:38:14.725Z,4.63
2018-11-12T22:40:48.574Z,4.37
2018-11-12T22:43:22.390Z,4.20
2018-11-12T22:45:56.420Z,4.20
2018-11-12T22:48:30.263Z,3.60
2018-11-12T22:51:04.009Z,4.43
2018-11-12T22:53:37.798Z,3.77
2018-11-12T22:56:11.598Z,3.87
2018-11-12T22:58:45.782Z,3.37
2018-11-12T23:01:19.847Z,3.30
2018-11-12T23:03:53.841Z,3.20
2018-11-12T23:06:28.988Z,3.03
2018-11-12T23:09:03.737Z,3.23
2018-11-12T23:11:38.318Z,3.10
2018-11-12T23:14:12.993Z,3.00
2018-11-12T23:16:46.886Z,2.87
2018-11-12T23:19:20.545Z,2.80
2018-11-12T23:21:54.366Z,2.60
2018-11-12T23:24:28.067Z,2.70
2018-11-12T23:27:01.646Z,2.63
2018-11-12T23:29:35.584Z,2.73
2018-11-12T23:32:09.495Z,2.70
2018-11-12T23:34:43.165Z,3.00
2018-11-12T23:37:17.047Z,2.80
2018-11-12T23:39:50.768Z,2.90
2018-11-12T23:42:24.811Z,2.80
2018-11-12T23:44:58.565Z,2.70
2018-11-12T23:47:32.462Z,3.03
2018-11-12T23:50:08.496Z,2.87
2018-11-12T23:52:42.787Z,2.67
2018-11-12T23:55:16.981Z,2.70
2018-11-12T23:57:51.205Z,3.10
